createdAt,value
2022-11-06T00:02:08.647Z,99407.69
2022-11-06T00:04:38.125Z,99406.81
2022-11-06T00:07:07.865Z,99397.97
2022-11-06T00:09:37.333Z,99398.44
2022-11-06T00:12:07.839Z,99403.22
2022-11-06T00:14:39.394Z,99402.94
2022-11-06T00:17:09.324Z,99404.31
2022-11-06T00:19:38.913Z,99413.25
2022-11-06T00:22:08.349Z,99412.72
2022-11-06T00:24:37.973Z,99412.59
2022-11-06T00:27:07.486Z,99408.06
2022-11-06T00:29:37.280Z,99402.56
2022-11-06T00:32:08.150Z,99407.75
2022-11-06T00:34:37.875Z,99409.19
2022-11-06T00:37:07.329Z,99401.03
2022-11-06T00:39:37.088Z,99403.31
2022-11-06T00:42:06.731Z,99403.47
2022-11-06T00:44:36.446Z,99410.97
2022-11-06T00:47:06.084Z,99405.34
2022-11-06T00:49:37.234Z,99399.63
2022-11-06T00:52:06.963Z,99404.88
2022-11-06T00:54:38.496Z,99395.88
2022-11-06T00:57:08.102Z,99406.28
2022-11-06T00:59:37.910Z,99404.81
2022-11-06T01:02:07.648Z,99406.63
2022-11-06T01:04:38.694Z,99408.59
2022-11-06T01:07:08.152Z,99403.22
2022-11-06T01:09:38.057Z,99395.34
2022-11-06T01:12:13.646Z,99401.22
2022-11-06T01:14:44.258Z,99404.81
2022-11-06T01:17:14.922Z,99403.28
2022-11-06T01:19:45.779Z,99402.88
2022-11-06T01:22:15.344Z,99401.75
2022-11-06T01:24:44.872Z,99398.59
2022-11-06T01:27:29.542Z,99389.28
2022-11-06T01:29:59.076Z,99402.41
2022-11-06T01:32:28.821Z,99408.47
2022-11-06T01:34:59.888Z,99396.53
2022-11-06T01:37:29.355Z,99395.06
2022-11-06T01:39:59.123Z,99401.88
2022-11-06T01:42:28.675Z,99402.13
2022-11-06T01:45:22.204Z,99396.66
2022-11-06T01:47:51.834Z,99400.03
2022-11-06T01:50:23.185Z,99399.19
2022-11-06T01:52:52.897Z,99394.00
2022-11-06T01:55:24.025Z,99402.03
2022-11-06T01:57:53.897Z,99390.59
2022-11-06T02:00:23.440Z,99392.03
2022-11-06T02:02:53.283Z,99394.41
2022-11-06T02:05:24.483Z,99397.66
2022-11-06T02:07:54.527Z,99396.38
2022-11-06T02:10:24.344Z,99394.72
2022-11-06T02:12:59.188Z,99400.47
2022-11-06T02:15:35.559Z,99387.25
2022-11-06T02:18:29.220Z,99391.38
2022-11-06T02:21:12.107Z,99393.22
2022-11-06T02:23:52.259Z,99387.25
2022-11-06T02:26:29.651Z,99388.97
2022-11-06T02:29:04.359Z,99384.19
2022-11-06T02:31:35.721Z,99380.41
2022-11-06T02:34:07.722Z,99384.19
2022-11-06T02:36:40.120Z,99381.94
2022-11-06T02:39:11.761Z,99385.06
2022-11-06T02:41:43.860Z,99381.72
2022-11-06T02:44:18.636Z,99389.75
2022-11-06T02:46:50.532Z,99390.72
2022-11-06T02:49:25.012Z,99394.06
2022-11-06T02:51:57.116Z,99393.69
2022-11-06T02:54:28.042Z,99392.69
2022-11-06T02:57:00.883Z,99393.09
2022-11-06T02:59:34.265Z,99391.09
2022-11-06T03:02:06.485Z,99386.91
2022-11-06T03:04:38.977Z,99394.94
2022-11-06T03:07:11.370Z,99404.63
2022-11-06T03:09:41.892Z,99402.94
2022-11-06T03:12:18.473Z,99406.47
2022-11-06T03:14:54.329Z,99408.84
2022-11-06T03:17:28.179Z,99404.38
2022-11-06T03:20:02.114Z,99406.19
2022-11-06T03:22:34.658Z,99405.94
2022-11-06T03:25:10.391Z,99400.28
2022-11-06T03:27:42.650Z,99406.19
2022-11-06T03:30:16.742Z,99407.88
2022-11-06T03:32:48.618Z,99402.16
2022-11-06T03:35:21.046Z,99404.69
2022-11-06T03:37:54.661Z,99397.63
2022-11-06T03:40:26.612Z,99400.31
2022-11-06T03:42:57.648Z,99395.56
2022-11-06T03:45:29.006Z,99401.59
2022-11-06T03:48:00.802Z,99402.16
2022-11-06T03:50:32.629Z,99397.97
2022-11-06T03:53:05.222Z,99391.22
2022-11-06T03:55:37.440Z,99383.91
2022-11-06T03:58:09.743Z,99392.63
2022-11-06T04:00:42.825Z,99399.09
2022-11-06T04:03:15.491Z,99398.09
2022-11-06T04:05:48.692Z,99392.25
2022-11-06T04:08:36.191Z,99399.41
2022-11-06T04:11:25.524Z,99405.00
2022-11-06T04:13:58.805Z,99398.84
2022-11-06T04:16:32.801Z,99407.28
2022-11-06T04:19:02.570Z,99403.63
2022-11-06T04:21:39.060Z,99401.25
2022-11-06T04:24:29.933Z,99399.72
2022-11-06T04:27:07.121Z,99400.25
2022-11-06T04:29:43.003Z,99394.03
2022-11-06T04:32:18.544Z,99391.22
2022-11-06T04:34:51.434Z,99389.81
2022-11-06T04:37:23.055Z,99393.50
2022-11-06T04:39:56.576Z,99389.41
2022-11-06T04:42:30.659Z,99391.53
2022-11-06T04:45:03.658Z,99394.63
2022-11-06T04:47:35.898Z,99394.63
2022-11-06T04:50:07.073Z,99390.84
2022-11-06T04:52:38.285Z,99397.16
2022-11-06T04:55:08.100Z,99398.84
2022-11-06T04:57:37.668Z,99395.75
2022-11-06T05:00:07.785Z,99398.56
2022-11-06T05:02:38.726Z,99390.41
2022-11-06T05:05:08.616Z,99390.84
2022-11-06T05:07:38.125Z,99394.63
2022-11-06T05:10:07.975Z,99392.09
2022-11-06T05:12:38.118Z,99393.94
2022-11-06T05:15:08.840Z,99397.59
2022-11-06T05:17:40.248Z,99397.28
2022-11-06T05:20:09.882Z,99393.34
2022-11-06T05:22:58.828Z,99404.47
2022-11-06T05:25:29.483Z,99410.66
2022-11-06T05:27:59.148Z,99406.56
2022-11-06T05:30:28.857Z,99413.91
2022-11-06T05:32:59.729Z,99422.47
2022-11-06T05:35:29.229Z,99420.38
2022-11-06T05:38:02.361Z,99422.06
2022-11-06T05:40:32.007Z,99426.00
2022-11-06T05:43:01.592Z,99430.63
2022-11-06T05:45:31.099Z,99428.09
2022-11-06T05:48:02.899Z,99431.72
2022-11-06T05:50:32.415Z,99432.72
2022-11-06T05:53:02.093Z,99439.47
2022-11-06T05:55:31.606Z,99443.69
2022-11-06T05:58:01.448Z,99449.56
2022-11-06T06:00:31.253Z,99452.94
2022-11-06T06:03:02.607Z,99458.28
2022-11-06T06:05:32.339Z,99460.38
2022-11-06T06:08:01.865Z,99457.56
2022-11-06T06:10:31.471Z,99465.72
2022-11-06T06:13:01.456Z,99461.63
2022-11-06T06:15:31.141Z,99474.47
2022-11-06T06:18:02.108Z,99476.69
2022-11-06T06:20:31.704Z,99474.84
2022-11-06T06:23:01.895Z,99480.63
2022-11-06T06:25:31.736Z,99492.00
2022-11-06T06:28:01.252Z,99494.22
2022-11-06T06:30:30.716Z,99495.94
2022-11-06T06:33:04.333Z,99501.56
2022-11-06T06:35:35.998Z,99506.03
2022-11-06T06:38:05.467Z,99513.09
2022-11-06T06:40:35.043Z,99510.94
2022-11-06T06:43:04.624Z,99518.44
2022-11-06T06:45:34.325Z,99523.66
2022-11-06T06:48:04.457Z,99523.19
2022-11-06T06:50:35.402Z,99525.72
2022-11-06T06:53:05.513Z,99526.97
2022-11-06T06:55:35.281Z,99523.19
2022-11-06T06:58:04.692Z,99535.97
2022-11-06T07:00:34.366Z,99519.59
2022-11-06T07:03:03.943Z,99526.94
2022-11-06T07:05:33.531Z,99531.13
2022-11-06T07:08:04.456Z,99536.63
2022-11-06T07:10:34.199Z,99529.97
2022-11-06T07:13:04.727Z,99529.84
2022-11-06T07:15:34.809Z,99522.47
2022-11-06T07:18:05.082Z,99514.44
2022-11-06T07:20:34.911Z,99513.88
2022-11-06T07:23:08.289Z,99522.84
2022-11-06T07:25:37.960Z,99511.59
2022-11-06T07:28:08.435Z,99506.50
2022-11-06T07:30:38.069Z,99514.59
2022-11-06T07:33:08.863Z,99501.63
2022-11-06T07:35:38.496Z,99501.16
2022-11-06T07:38:09.510Z,99498.72
2022-11-06T07:40:39.004Z,99503.78
2022-11-06T07:43:08.988Z,99507.69
2022-11-06T07:45:39.408Z,99510.88
2022-11-06T07:48:09.492Z,99506.09
2022-11-06T07:50:39.056Z,99506.63
2022-11-06T07:53:10.042Z,99499.28
2022-11-06T07:55:42.416Z,99497.97
2022-11-06T07:58:12.687Z,99502.72
2022-11-06T08:00:42.404Z,99514.81
2022-11-06T08:03:12.182Z,99504.63
2022-11-06T08:05:42.086Z,99505.19
2022-11-06T08:08:16.611Z,99509.22
2022-11-06T08:10:47.767Z,99524.00
2022-11-06T08:13:18.877Z,99516.38
2022-11-06T08:15:49.061Z,99525.78
2022-11-06T08:18:18.534Z,99531.81
2022-11-06T08:20:48.034Z,99531.19
2022-11-06T08:23:19.028Z,99528.91
2022-11-06T08:25:48.800Z,99529.25
2022-11-06T08:28:18.410Z,99525.97
2022-11-06T08:30:48.402Z,99527.34
2022-11-06T08:33:18.667Z,99523.19
2022-11-06T08:35:48.577Z,99519.34
2022-11-06T08:38:19.760Z,99525.78
2022-11-06T08:40:53.429Z,99526.31
2022-11-06T08:43:26.692Z,99528.84
2022-11-06T08:45:56.426Z,99533.88
2022-11-06T08:48:26.116Z,99530.88
2022-11-06T08:50:55.904Z,99528.72
2022-11-06T08:53:27.154Z,99528.09
2022-11-06T08:55:56.984Z,99533.66
2022-11-06T08:58:26.685Z,99531.66
2022-11-06T09:00:56.500Z,99530.69
2022-11-06T09:03:26.383Z,99533.75
2022-11-06T09:05:56.116Z,99524.06
2022-11-06T09:08:27.136Z,99519.69
2022-11-06T09:10:58.841Z,99524.94
2022-11-06T09:13:29.250Z,99524.53
2022-11-06T09:16:00.962Z,99525.75
2022-11-06T09:18:30.927Z,99521.75
2022-11-06T09:21:01.193Z,99528.63
2022-11-06T09:23:32.288Z,99523.75
2022-11-06T09:26:02.261Z,99526.47
2022-11-06T09:28:32.095Z,99523.97
2022-11-06T09:31:02.831Z,99526.00
2022-11-06T09:33:32.759Z,99525.31
2022-11-06T09:36:04.844Z,99523.16
2022-11-06T09:38:35.904Z,99513.06
2022-11-06T09:41:06.226Z,99510.88
2022-11-06T09:46:40.333Z,99509.34
2022-11-06T09:49:13.860Z,99504.84
2022-11-06T09:51:48.798Z,99506.34
2022-11-06T09:54:23.975Z,99500.94
2022-11-06T09:56:56.897Z,99503.81
2022-11-06T09:59:27.029Z,99491.69
2022-11-06T10:01:58.018Z,99491.38
2022-11-06T10:04:37.811Z,99495.22
2022-11-06T10:07:17.463Z,99495.22
2022-11-06T10:09:48.452Z,99485.63
2022-11-06T10:12:24.224Z,99493.88
2022-11-06T10:14:59.740Z,99485.63
2022-11-06T10:17:36.790Z,99473.16
2022-11-06T10:20:11.850Z,99477.00
2022-11-06T10:22:42.752Z,99478.88
2022-11-06T10:25:20.910Z,99471.00
2022-11-06T10:27:58.160Z,99470.94
2022-11-06T10:30:34.325Z,99467.53
2022-11-06T10:33:10.472Z,99475.44
2022-11-06T10:35:43.321Z,99463.47
2022-11-06T10:38:15.017Z,99462.31
2022-11-06T10:40:48.977Z,99460.59
2022-11-06T10:43:25.179Z,99455.84
2022-11-06T10:45:59.801Z,99454.19
2022-11-06T10:48:35.548Z,99463.44
2022-11-06T10:51:15.297Z,99460.41
2022-11-06T10:53:52.477Z,99453.97
2022-11-06T10:56:34.077Z,99448.72
2022-11-06T10:59:03.703Z,99437.97
2022-11-06T11:01:33.479Z,99434.38
2022-11-06T11:04:03.107Z,99434.38
2022-11-06T11:06:32.799Z,99432.88
2022-11-06T11:09:03.025Z,99429.72
2022-11-06T11:11:33.947Z,99428.34
2022-11-06T11:14:14.679Z,99424.31
2022-11-06T11:16:46.398Z,99422.03
2022-11-06T11:19:17.289Z,99418.41
2022-11-06T11:21:53.676Z,99417.59
2022-11-06T11:24:23.423Z,99424.94
2022-11-06T11:26:55.989Z,99422.66
2022-11-06T11:29:27.800Z,99419.31
2022-11-06T11:32:00.305Z,99424.13
2022-11-06T11:34:31.384Z,99416.41
2022-11-06T11:37:02.909Z,99413.22
2022-11-06T11:39:33.586Z,99411.53
2022-11-06T11:42:33.344Z,99404.94
2022-11-06T11:45:18.155Z,99408.31
2022-11-06T11:47:48.543Z,99406.81
2022-11-06T11:50:20.001Z,99406.81
2022-11-06T11:52:50.460Z,99410.63
2022-11-06T11:55:21.876Z,99410.50
2022-11-06T11:57:52.586Z,99405.44
2022-11-06T12:00:24.588Z,99407.94
2022-11-06T12:02:56.892Z,99409.91
2022-11-06T12:05:29.288Z,99409.78
2022-11-06T12:08:02.617Z,99411.69
2022-11-06T12:10:33.697Z,99414.41
2022-11-06T12:13:05.495Z,99403.56
2022-11-06T12:15:42.507Z,99403.75
2022-11-06T12:18:14.616Z,99403.44
2022-11-06T12:20:46.618Z,99411.09
2022-11-06T12:23:17.534Z,99410.28
2022-11-06T12:25:51.459Z,99412.84
2022-11-06T12:28:24.031Z,99406.91
2022-11-06T12:31:01.292Z,99414.75
2022-11-06T12:34:04.636Z,99416.84
2022-11-06T12:36:25.864Z,99416.50
2022-11-06T12:38:59.244Z,99411.78
2022-11-06T12:41:31.077Z,99407.03
2022-11-06T12:44:00.778Z,99411.25
2022-11-06T12:46:41.447Z,99411.25
2022-11-06T12:49:38.094Z,99410.56
2022-11-06T12:52:16.193Z,99405.78
2022-11-06T12:54:52.477Z,99408.75
2022-11-06T12:57:29.197Z,99408.63
2022-11-06T13:00:03.827Z,99410.06
2022-11-06T13:02:47.802Z,99413.44
2022-11-06T13:05:19.862Z,99411.78
2022-11-06T13:08:03.888Z,99408.06
2022-11-06T13:10:45.226Z,99404.72
2022-11-06T13:13:27.553Z,99413.63
2022-11-06T13:16:01.816Z,99413.06
2022-11-06T13:18:35.367Z,99423.41
2022-11-06T13:21:08.680Z,99422.75
2022-11-06T13:23:40.662Z,99417.63
2022-11-06T13:26:14.200Z,99413.50
2022-11-06T13:28:45.975Z,99412.84
2022-11-06T13:31:18.756Z,99412.59
2022-11-06T13:33:53.328Z,99419.72
2022-11-06T13:36:23.840Z,99414.41
2022-11-06T13:38:55.212Z,99416.56
2022-11-06T13:41:26.777Z,99410.53
2022-11-06T13:43:58.547Z,99412.78
2022-11-06T13:46:32.780Z,99412.78
2022-11-06T13:49:07.741Z,99409.31
2022-11-06T13:51:43.559Z,99412.97
2022-11-06T13:54:18.339Z,99415.16
2022-11-06T13:56:56.749Z,99414.09
2022-11-06T13:59:37.943Z,99413.25
2022-11-06T14:02:19.105Z,99413.34
2022-11-06T14:05:14.024Z,99416.78
2022-11-06T14:07:44.099Z,99414.34
2022-11-06T14:10:19.818Z,99428.19
2022-11-06T14:12:51.413Z,99420.75
2022-11-06T14:15:27.168Z,99418.00
2022-11-06T14:17:58.373Z,99427.75
2022-11-06T14:20:31.289Z,99419.91
2022-11-06T14:23:19.250Z,99420.94
2022-11-06T14:25:59.579Z,99415.13
2022-11-06T14:28:30.293Z,99416.72
2022-11-06T14:31:19.755Z,99419.09
2022-11-06T14:33:59.700Z,99414.47
2022-11-06T14:36:35.471Z,99419.91
2022-11-06T14:39:10.597Z,99420.25
2022-11-06T14:41:55.013Z,99415.78
2022-11-06T14:44:42.361Z,99423.59
2022-11-06T14:47:23.908Z,99426.19
2022-11-06T14:49:55.016Z,99436.81
2022-11-06T14:52:26.401Z,99433.16
2022-11-06T14:55:05.179Z,99432.03
2022-11-06T14:57:39.277Z,99429.88
2022-11-06T15:00:13.494Z,99436.63
2022-11-06T15:02:44.070Z,99436.31
2022-11-06T15:05:17.699Z,99434.31
2022-11-06T15:08:05.027Z,99433.47
2022-11-06T15:10:54.785Z,99430.63
2022-11-06T15:13:30.089Z,99436.88
2022-11-06T15:16:13.431Z,99429.81
2022-11-06T15:18:44.979Z,99432.03
2022-11-06T15:21:22.198Z,99438.78
2022-11-06T15:24:03.709Z,99436.94
2022-11-06T15:26:34.920Z,99442.19
2022-11-06T15:29:10.684Z,99438.16
2022-11-06T15:31:40.847Z,99442.03
2022-11-06T15:34:16.489Z,99440.53
2022-11-06T15:36:48.701Z,99448.78
2022-11-06T15:39:38.845Z,99448.94
2022-11-06T15:42:10.927Z,99458.53
2022-11-06T15:44:41.351Z,99457.88
2022-11-06T15:47:20.976Z,99460.25
2022-11-06T15:49:50.513Z,99462.78
2022-11-06T15:52:20.034Z,99470.31
2022-11-06T15:54:56.684Z,99471.50
2022-11-06T15:57:28.909Z,99474.53
2022-11-06T16:00:09.213Z,99470.84
2022-11-06T16:02:48.174Z,99469.50
2022-11-06T16:05:18.243Z,99476.41
2022-11-06T16:07:48.872Z,99481.28
2022-11-06T16:10:19.081Z,99489.88
2022-11-06T16:12:51.301Z,99486.66
2022-11-06T16:15:39.894Z,99491.38
2022-11-06T16:18:15.504Z,99496.78
2022-11-06T16:20:46.779Z,99497.09
2022-11-06T16:23:17.895Z,99508.88
2022-11-06T16:25:47.805Z,99509.53
2022-11-06T16:28:20.452Z,99511.72
2022-11-06T16:30:50.712Z,99509.88
2022-11-06T16:33:22.767Z,99513.56
2022-11-06T16:35:55.346Z,99516.44
2022-11-06T16:38:46.884Z,99520.13
2022-11-06T16:41:34.863Z,99524.63
2022-11-06T16:44:30.837Z,99529.19
2022-11-06T16:47:15.371Z,99532.88
2022-11-06T16:49:52.713Z,99526.19
2022-11-06T16:52:26.175Z,99538.59
2022-11-06T16:54:59.414Z,99543.13
2022-11-06T16:57:30.448Z,99549.84
2022-11-06T17:00:03.339Z,99545.31
2022-11-06T17:02:34.605Z,99545.66
2022-11-06T17:05:11.542Z,99544.97
2022-11-06T17:07:41.549Z,99550.63
2022-11-06T17:10:27.244Z,99560.06
2022-11-06T17:12:57.892Z,99564.06
2022-11-06T17:15:29.411Z,99566.56
2022-11-06T17:17:59.462Z,99570.22
2022-11-06T17:20:30.142Z,99565.88
2022-11-06T17:22:59.959Z,99563.19
2022-11-06T17:25:30.308Z,99567.88
2022-11-06T17:28:00.022Z,99568.91
2022-11-06T17:30:30.985Z,99569.56
2022-11-06T17:33:00.516Z,99579.66
2022-11-06T17:35:30.047Z,99580.97
2022-11-06T17:38:04.526Z,99584.16
2022-11-06T17:40:36.807Z,99584.31
2022-11-06T17:43:06.345Z,99580.59
2022-11-06T17:45:37.962Z,99586.63
2022-11-06T17:48:07.656Z,99583.69
2022-11-06T17:50:51.123Z,99591.91
2022-11-06T17:53:20.632Z,99592.25
2022-11-06T17:55:50.261Z,99594.41
2022-11-06T17:58:19.837Z,99595.56
2022-11-06T18:00:50.828Z,99604.47
2022-11-06T18:03:20.962Z,99592.88
2022-11-06T18:05:50.758Z,99604.63
2022-11-06T18:08:20.640Z,99604.28
2022-11-06T18:10:54.462Z,99606.81
2022-11-06T18:13:24.192Z,99605.66
2022-11-06T18:15:55.209Z,99611.03
2022-11-06T18:18:24.798Z,99607.38
2022-11-06T18:20:54.431Z,99611.19
2022-11-06T18:23:24.411Z,99604.69
2022-11-06T18:25:54.601Z,99607.38
2022-11-06T18:28:24.362Z,99620.78
2022-11-06T18:30:55.527Z,99623.47
2022-11-06T18:33:25.152Z,99623.63
2022-11-06T18:35:54.893Z,99627.31
2022-11-06T18:38:24.614Z,99629.84
2022-11-06T18:40:54.133Z,99632.53
2022-11-06T18:43:23.990Z,99629.84
2022-11-06T18:45:55.378Z,99638.06
2022-11-06T18:48:25.309Z,99638.06
2022-11-06T18:50:55.819Z,99641.72
2022-11-06T18:53:25.448Z,99638.06
2022-11-06T18:55:55.190Z,99646.81
2022-11-06T18:58:24.761Z,99642.28
2022-11-06T19:01:01.438Z,99640.56
2022-11-06T19:03:31.669Z,99653.00
2022-11-06T19:06:01.295Z,99663.75
2022-11-06T19:08:30.974Z,99666.44
2022-11-06T19:11:03.693Z,99665.44
2022-11-06T19:13:34.210Z,99672.47
2022-11-06T19:16:06.676Z,99670.97
2022-11-06T19:18:37.083Z,99669.94
2022-11-06T19:21:08.731Z,99670.81
2022-11-06T19:23:38.802Z,99667.81
2022-11-06T19:26:30.115Z,99671.66
2022-11-06T19:28:58.300Z,99679.53
2022-11-06T19:31:30.065Z,99679.53
2022-11-06T19:34:00.631Z,99691.44
2022-11-06T19:36:30.698Z,99683.03
2022-11-06T19:39:00.431Z,99684.84
2022-11-06T19:41:30.769Z,99679.81
2022-11-06T19:44:00.244Z,99680.78
2022-11-06T19:46:35.956Z,99686.78
2022-11-06T19:49:06.949Z,99683.22
2022-11-06T19:51:37.619Z,99697.50
2022-11-06T19:54:07.735Z,99697.50
2022-11-06T19:56:37.233Z,99704.69
2022-11-06T19:59:26.888Z,99711.91
2022-11-06T20:01:57.899Z,99710.69
2022-11-06T20:04:28.102Z,99711.00
2022-11-06T20:06:57.676Z,99713.53
2022-11-06T20:09:27.301Z,99710.28
2022-11-06T20:11:57.501Z,99723.56
2022-11-06T20:14:28.043Z,99720.19
2022-11-06T20:16:59.593Z,99721.66
2022-11-06T20:19:29.180Z,99719.84
2022-11-06T20:21:58.845Z,99715.06
2022-11-06T20:24:28.554Z,99721.28
2022-11-06T20:26:58.169Z,99717.22
2022-11-06T20:29:28.092Z,99717.22
2022-11-06T20:31:58.963Z,99721.72
2022-11-06T20:34:28.491Z,99721.38
2022-11-06T20:36:58.105Z,99720.66
2022-11-06T20:39:28.301Z,99726.19
2022-11-06T20:41:57.894Z,99734.94
2022-11-06T20:44:27.364Z,99724.34
2022-11-06T20:46:56.849Z,99728.84
2022-11-06T20:49:27.860Z,99728.19
2022-11-06T20:52:13.647Z,99725.50
2022-11-06T20:54:47.105Z,99728.34
2022-11-06T20:57:16.991Z,99727.94
2022-11-06T20:59:46.508Z,99729.31
2022-11-06T21:02:16.300Z,99723.81
2022-11-06T21:04:47.189Z,99727.50
2022-11-06T21:07:17.026Z,99724.66
2022-11-06T21:09:46.558Z,99736.22
2022-11-06T21:12:16.646Z,99736.22
2022-11-06T21:14:47.160Z,99736.22
2022-11-06T21:17:17.169Z,99733.25
2022-11-06T21:19:48.284Z,99744.81
2022-11-06T21:22:17.827Z,99745.13
2022-11-06T21:24:47.541Z,99750.88
2022-11-06T21:27:17.029Z,99749.56
2022-11-06T21:29:46.646Z,99753.78
2022-11-06T21:32:16.305Z,99748.41
2022-11-06T21:34:45.873Z,99754.63
2022-11-06T21:37:16.707Z,99742.75
2022-11-06T21:39:46.844Z,99742.75
2022-11-06T21:42:16.408Z,99744.59
2022-11-06T21:44:46.072Z,99752.31
2022-11-06T21:47:15.844Z,99742.75
2022-11-06T21:49:53.893Z,99749.63
2022-11-06T21:52:42.572Z,99752.31
2022-11-06T21:55:29.461Z,99752.31
2022-11-06T21:57:58.990Z,99757.53
2022-11-06T22:00:28.669Z,99765.75
2022-11-06T22:02:58.313Z,99761.38
2022-11-06T22:05:27.912Z,99758.56
2022-11-06T22:07:58.940Z,99761.06
2022-11-06T22:10:28.629Z,99763.38
2022-11-06T22:12:58.711Z,99766.19
2022-11-06T22:15:28.982Z,99767.06
2022-11-06T22:17:58.602Z,99768.88
2022-11-06T22:20:28.194Z,99767.91
2022-11-06T22:22:59.195Z,99770.44
2022-11-06T22:25:29.081Z,99763.38
2022-11-06T22:27:58.708Z,99763.06
2022-11-06T22:30:28.412Z,99772.13
2022-11-06T22:32:57.966Z,99772.72
2022-11-06T22:35:27.449Z,99773.72
2022-11-06T22:37:56.984Z,99776.25
2022-11-06T22:40:27.850Z,99779.63
2022-11-06T22:42:57.987Z,99789.81
2022-11-06T22:45:27.869Z,99789.28
2022-11-06T22:47:57.821Z,99780.91
2022-11-06T22:50:27.328Z,99790.81
2022-11-06T22:52:56.806Z,99791.81
2022-11-06T22:55:27.706Z,99794.78
2022-11-06T22:57:57.218Z,99787.72
2022-11-06T23:00:26.822Z,99796.50
2022-11-06T23:02:56.343Z,99799.06
2022-11-06T23:05:26.087Z,99797.94
2022-11-06T23:07:55.603Z,99805.69
2022-11-06T23:10:29.762Z,99808.34
2022-11-06T23:13:01.093Z,99811.88
2022-11-06T23:15:31.337Z,99807.53
2022-11-06T23:18:01.516Z,99809.34
2022-11-06T23:20:34.544Z,99811.03
2022-11-06T23:23:04.880Z,99819.91
2022-11-06T23:25:34.459Z,99819.91
2022-11-06T23:28:06.093Z,99812.19
2022-11-06T23:30:35.952Z,99815.16
2022-11-06T23:33:05.477Z,99820.38
2022-11-06T23:35:35.124Z,99810.66
2022-11-06T23:38:04.709Z,99816.47
2022-11-06T23:40:34.153Z,99825.06
2022-11-06T23:43:05.053Z,99822.91
2022-11-06T23:45:48.576Z,99829.28
2022-11-06T23:48:18.317Z,99828.59
2022-11-06T23:50:47.936Z,99830.44
2022-11-06T23:53:17.751Z,99835.78
2022-11-06T23:55:47.552Z,99836.31
2022-11-06T23:58:18.459Z,99837.50
